Time;durP1;ratioP1;P1;durP2;ratioP2;P2;SDS_P1;SDS_P2;PMS_P1;PMS_P2;Temp;Humidity;BMP_temperature;BMP_pressure;BME280_temperature;BME280_humidity;BME280_pressure;Samples;Min_cycle;Max_cycle;Signal;HPM_P1;HPM_P2
2024/01/31 00:04:24;;;;;;;;;;;16.00;57.10;;;;;;10109863;28;93448;-53
2024/01/31 00:09:26;;;;;;;;;;;16.00;56.90;;;;;;10109658;28;95727;-54
2024/01/31 00:14:28;;;;;;;;;;;16.00;56.60;;;;;;10110002;28;93486;-52
2024/01/31 00:19:30;;;;;;;;;;;16.00;56.30;;;;;;10109165;28;93583;-54
2024/01/31 00:24:32;;;;;;;;;;;16.00;56.00;;;;;;10107905;28;94605;-54
2024/01/31 00:29:34;;;;;;;;;;;16.00;55.90;;;;;;10123088;28;93342;-53
2024/01/31 00:34:39;;;;;;;;;;;16.00;55.70;;;;;;10115895;28;91791;-53
2024/01/31 00:39:41;;;;;;;;;;;16.00;55.40;;;;;;10128117;28;93665;-53
2024/01/31 00:44:43;;;;;;;;;;;15.90;55.20;;;;;;10127989;28;93442;-52
2024/01/31 00:49:45;;;;;;;;;;;15.90;55.20;;;;;;10123522;28;96831;-51
2024/01/31 00:54:48;;;;;;;;;;;15.90;55.90;;;;;;10121817;28;93422;-52
2024/01/31 00:59:50;;;;;;;;;;;15.90;56.40;;;;;;10123124;28;93055;-54
2024/01/31 01:04:52;;;;;;;;;;;15.90;56.10;;;;;;10118105;28;94475;-52
2024/01/31 01:09:54;;;;;;;;;;;15.80;55.80;;;;;;10121921;28;94634;-52
2024/01/31 01:14:56;;;;;;;;;;;15.90;55.60;;;;;;10108589;28;94650;-54
2024/01/31 01:20:12;;;;;;;;;;;15.90;55.40;;;;;;10120489;28;95027;-54
2024/01/31 01:25:14;;;;;;;;;;;15.80;55.10;;;;;;10091556;28;93422;-54
2024/01/31 01:30:19;;;;;;;;;;;15.80;54.90;;;;;;10120270;28;93579;-55
2024/01/31 01:35:21;;;;;;;;;;;15.80;54.80;;;;;;10103909;28;94456;-54
2024/01/31 01:40:23;;;;;;;;;;;15.80;54.60;;;;;;10106928;28;97339;-54
2024/01/31 01:45:29;;;;;;;;;;;15.80;54.80;;;;;;10112664;28;93714;-55
2024/01/31 01:50:31;;;;;;;;;;;15.80;55.50;;;;;;10123513;28;93292;-55
2024/01/31 01:55:33;;;;;;;;;;;15.70;55.70;;;;;;10117024;28;93777;-54
2024/01/31 02:06:00;;;;;;;;;;;15.80;55.60;;;;;;10368194;23;94974;-52
2024/01/31 02:11:03;;;;;;;;;;;15.90;55.20;;;;;;10101418;28;93458;-55
2024/01/31 02:16:05;;;;;;;;;;;16.00;54.90;;;;;;10114633;28;93950;-50
2024/01/31 02:21:07;;;;;;;;;;;16.00;54.70;;;;;;10110073;28;92729;-51
2024/01/31 02:26:08;;;;;;;;;;;16.10;54.50;;;;;;10108314;28;93496;-48
2024/01/31 02:31:10;;;;;;;;;;;16.10;54.20;;;;;;10105492;28;95883;-50
2024/01/31 02:36:12;;;;;;;;;;;16.10;54.10;;;;;;10099368;28;95274;-51
2024/01/31 02:41:14;;;;;;;;;;;16.10;54.10;;;;;;10120097;28;94830;-52
2024/01/31 02:46:16;;;;;;;;;;;16.00;54.60;;;;;;10109438;28;94617;-49
2024/01/31 02:51:18;;;;;;;;;;;16.00;55.00;;;;;;10117234;28;93743;-52
2024/01/31 02:56:19;;;;;;;;;;;16.00;54.90;;;;;;10086422;28;93418;-52
2024/01/31 03:01:21;;;;;;;;;;;16.00;54.70;;;;;;10117400;28;94442;-49
2024/01/31 03:06:23;;;;;;;;;;;15.90;54.50;;;;;;10112302;28;91860;-50
2024/01/31 03:11:25;;;;;;;;;;;15.90;54.20;;;;;;10093071;28;95723;-51
2024/01/31 03:16:27;;;;;;;;;;;15.90;54.10;;;;;;10115245;28;92554;-47
2024/01/31 03:21:28;;;;;;;;;;;15.90;53.90;;;;;;10107924;28;97022;-50
2024/01/31 03:26:30;;;;;;;;;;;15.90;53.90;;;;;;10118712;28;92998;-48
2024/01/31 03:31:32;;;;;;;;;;;15.80;53.60;;;;;;10108179;28;94752;-46
2024/01/31 03:36:34;;;;;;;;;;;15.80;54.10;;;;;;10124339;28;94169;-49
2024/01/31 03:41:42;;;;;;;;;;;15.80;54.70;;;;;;10096521;28;94650;-50
2024/01/31 03:46:44;;;;;;;;;;;15.80;54.80;;;;;;10085371;28;93834;-50
2024/01/31 03:51:45;;;;;;;;;;;15.70;54.80;;;;;;10111788;28;93493;-48
2024/01/31 03:56:48;;;;;;;;;;;15.90;54.70;;;;;;10117753;28;93751;-51
2024/01/31 04:01:52;;;;;;;;;;;16.00;54.40;;;;;;10124863;28;93446;-51
2024/01/31 04:06:55;;;;;;;;;;;16.00;54.00;;;;;;10106037;28;94528;-52
2024/01/31 04:11:57;;;;;;;;;;;16.00;53.80;;;;;;10099774;28;96499;-47
2024/01/31 04:16:59;;;;;;;;;;;16.00;53.60;;;;;;10108531;28;94898;-71
2024/01/31 04:22:00;;;;;;;;;;;16.00;53.50;;;;;;10109394;28;92662;-51
2024/01/31 04:27:02;;;;;;;;;;;15.90;53.30;;;;;;10110088;28;93141;-49
2024/01/31 04:32:04;;;;;;;;;;;15.90;53.50;;;;;;10122306;28;94395;-50
2024/01/31 04:37:06;;;;;;;;;;;15.90;54.00;;;;;;10128148;28;93384;-48
2024/01/31 04:42:08;;;;;;;;;;;15.80;54.20;;;;;;10104988;28;93649;-48
2024/01/31 04:47:10;;;;;;;;;;;15.80;54.20;;;;;;10129154;28;93693;-51
2024/01/31 04:52:12;;;;;;;;;;;15.80;54.00;;;;;;10113387;28;94433;-47
2024/01/31 04:57:14;;;;;;;;;;;15.80;53.90;;;;;;10101505;28;94529;-47
2024/01/31 05:02:15;;;;;;;;;;;15.80;53.80;;;;;;10112476;28;96648;-49
2024/01/31 05:07:17;;;;;;;;;;;15.80;53.60;;;;;;10127468;28;94360;-49
2024/01/31 05:12:19;;;;;;;;;;;15.80;53.80;;;;;;10115401;28;93465;-49
2024/01/31 05:17:22;;;;;;;;;;;15.80;53.60;;;;;;10112674;28;93530;-45
2024/01/31 05:22:25;;;;;;;;;;;16.00;53.40;;;;;;10113833;28;94072;-49
2024/01/31 05:27:27;;;;;;;;;;;16.20;53.70;;;;;;10112067;28;93585;-47
2024/01/31 05:32:28;;;;;;;;;;;16.40;53.80;;;;;;10119910;28;94782;-47
2024/01/31 05:37:30;;;;;;;;;;;16.50;53.40;;;;;;10113900;28;92888;-46
2024/01/31 05:42:32;;;;;;;;;;;16.60;53.20;;;;;;10116044;28;94484;-45
2024/01/31 05:47:35;;;;;;;;;;;16.70;53.30;;;;;;10104740;28;94489;-45
2024/01/31 05:52:37;;;;;;;;;;;16.70;54.80;;;;;;10116832;28;96792;-47
2024/01/31 05:57:39;;;;;;;;;;;16.80;55.00;;;;;;10121104;28;94679;-47
2024/01/31 06:02:40;;;;;;;;;;;16.80;55.10;;;;;;10121140;28;94102;-51
2024/01/31 06:07:42;;;;;;;;;;;16.80;55.30;;;;;;10121429;28;93341;-52
2024/01/31 06:12:44;;;;;;;;;;;16.80;54.90;;;;;;10121670;28;93554;-51
2024/01/31 06:17:46;;;;;;;;;;;16.80;54.60;;;;;;10110161;28;93507;-49
2024/01/31 06:22:51;;;;;;;;;;;16.80;54.50;;;;;;10088951;28;94189;-47
2024/01/31 06:27:54;;;;;;;;;;;16.80;54.50;;;;;;10109379;28;94011;-51
2024/01/31 06:33:05;;;;;;;;;;;16.80;54.70;;;;;;10098356;28;94164;-48
2024/01/31 06:38:07;;;;;;;;;;;16.80;54.50;;;;;;10094780;28;93576;-49
2024/01/31 06:43:09;;;;;;;;;;;16.80;54.40;;;;;;10101682;28;96222;-54
2024/01/31 06:48:11;;;;;;;;;;;16.90;54.40;;;;;;10108791;28;94514;-47
2024/01/31 06:53:13;;;;;;;;;;;16.80;54.30;;;;;;10095067;28;93773;-47
2024/01/31 06:58:14;;;;;;;;;;;16.80;54.30;;;;;;10108207;28;92488;-50
2024/01/31 07:03:16;;;;;;;;;;;16.70;54.30;;;;;;10112260;28;94789;-50
2024/01/31 07:08:18;;;;;;;;;;;16.60;54.30;;;;;;10110934;28;93939;-50
2024/01/31 07:13:20;;;;;;;;;;;16.60;54.40;;;;;;10102163;28;95013;-46
2024/01/31 07:18:22;;;;;;;;;;;16.50;54.50;;;;;;10092916;28;92739;-47
2024/01/31 07:23:24;;;;;;;;;;;16.40;55.60;;;;;;10115337;28;93826;-50
2024/01/31 07:28:26;;;;;;;;;;;16.40;54.70;;;;;;10104000;28;94434;-51
2024/01/31 07:33:28;;;;;;;;;;;16.40;54.80;;;;;;10103549;28;95932;-52
2024/01/31 07:38:30;;;;;;;;;;;16.30;54.80;;;;;;10085054;28;94357;-51
2024/01/31 07:43:32;;;;;;;;;;;16.20;55.00;;;;;;10108761;28;93655;-50
2024/01/31 07:48:34;;;;;;;;;;;16.20;55.10;;;;;;10104789;28;93718;-47
2024/01/31 07:53:37;;;;;;;;;;;16.10;55.40;;;;;;10094508;28;93613;-52
2024/01/31 07:58:39;;;;;;;;;;;16.10;55.40;;;;;;10106965;28;94556;-52
2024/01/31 08:03:42;;;;;;;;;;;16.10;55.60;;;;;;10094344;28;94412;-50
2024/01/31 08:08:45;;;;;;;;;;;16.00;55.50;;;;;;10109672;28;92245;-49
2024/01/31 08:13:47;;;;;;;;;;;16.00;55.60;;;;;;10095821;28;94368;-50
2024/01/31 08:18:49;;;;;;;;;;;15.90;55.70;;;;;;10123053;28;94355;-52
2024/01/31 08:23:51;;;;;;;;;;;15.90;55.70;;;;;;10114119;28;95524;-52
2024/01/31 08:28:54;;;;;;;;;;;15.90;55.80;;;;;;10100489;28;94398;-51
2024/01/31 08:34:17;;;;;;;;;;;15.80;55.80;;;;;;10100869;28;94456;-50
2024/01/31 08:39:19;;;;;;;;;;;15.80;55.90;;;;;;10091351;28;93857;-50
2024/01/31 08:44:21;;;;;;;;;;;15.70;55.90;;;;;;10098180;28;93501;-50
2024/01/31 08:49:22;;;;;;;;;;;15.70;55.90;;;;;;10102031;28;92941;-51
2024/01/31 08:54:25;;;;;;;;;;;15.70;56.00;;;;;;10108995;28;94338;-52
2024/01/31 08:59:26;;;;;;;;;;;15.70;56.10;;;;;;10107464;28;91839;-51
2024/01/31 09:04:28;;;;;;;;;;;15.70;55.90;;;;;;10111176;28;93422;-47
2024/01/31 09:09:32;;;;;;;;;;;15.70;55.80;;;;;;10115988;28;95787;-48
2024/01/31 09:14:34;;;;;;;;;;;15.80;55.60;;;;;;10096522;28;95855;-49
2024/01/31 09:19:36;;;;;;;;;;;15.80;55.50;;;;;;10112923;28;94736;-47
2024/01/31 09:24:38;;;;;;;;;;;15.90;55.40;;;;;;10119689;28;94446;-48
2024/01/31 09:29:40;;;;;;;;;;;15.90;55.30;;;;;;10118481;28;93428;-47
2024/01/31 09:34:45;;;;;;;;;;;15.90;55.20;;;;;;10099455;28;94620;-51
2024/01/31 09:39:48;;;;;;;;;;;15.90;55.40;;;;;;10122542;28;94838;-46
2024/01/31 09:44:50;;;;;;;;;;;15.80;55.30;;;;;;10124589;28;94119;-50
2024/01/31 09:49:52;;;;;;;;;;;15.80;55.40;;;;;;10114601;28;92686;-50
2024/01/31 09:54:58;;;;;;;;;;;15.80;55.60;;;;;;10110288;28;94447;-49
2024/01/31 10:00:00;;;;;;;;;;;15.80;55.80;;;;;;10095180;28;94543;-51
2024/01/31 10:05:03;;;;;;;;;;;15.80;55.70;;;;;;10121940;28;96786;-51
2024/01/31 10:10:06;;;;;;;;;;;15.70;55.80;;;;;;10105059;28;93417;-51
2024/01/31 10:15:09;;;;;;;;;;;15.70;55.90;;;;;;10100257;28;93455;-46
2024/01/31 10:20:13;;;;;;;;;;;15.70;55.90;;;;;;10099975;28;93062;-50
2024/01/31 10:25:17;;;;;;;;;;;15.70;55.90;;;;;;10105710;28;93400;-49
2024/01/31 10:30:19;;;;;;;;;;;15.60;56.00;;;;;;10122108;28;93882;-50
2024/01/31 10:35:21;;;;;;;;;;;15.70;56.00;;;;;;10100491;28;93972;-51
2024/01/31 10:40:43;;;;;;;;;;;15.80;55.80;;;;;;10111283;28;92249;-47
2024/01/31 10:45:47;;;;;;;;;;;15.80;55.60;;;;;;10108218;28;93632;-49
2024/01/31 10:50:50;;;;;;;;;;;15.80;55.50;;;;;;10093145;28;93506;-47
2024/01/31 10:55:53;;;;;;;;;;;15.90;55.40;;;;;;10099275;28;95774;-47
2024/01/31 11:00:55;;;;;;;;;;;15.90;55.40;;;;;;10098445;28;94459;-50
2024/01/31 11:05:57;;;;;;;;;;;15.90;55.40;;;;;;10094567;28;94468;-47
2024/01/31 11:10:59;;;;;;;;;;;15.90;56.40;;;;;;10098069;28;94464;-51
2024/01/31 11:16:02;;;;;;;;;;;15.80;55.30;;;;;;10111234;28;93483;-48
2024/01/31 11:21:10;;;;;;;;;;;15.80;55.40;;;;;;10098246;28;94633;-48
2024/01/31 11:26:12;;;;;;;;;;;15.80;56.40;;;;;;10098726;28;94453;-49
2024/01/31 11:31:14;;;;;;;;;;;15.80;55.50;;;;;;10116549;28;91894;-50
2024/01/31 11:36:16;;;;;;;;;;;15.70;55.50;;;;;;10088894;28;93488;-48
2024/01/31 11:41:18;;;;;;;;;;;15.70;55.50;;;;;;10084717;28;93678;-52
2024/01/31 11:46:19;;;;;;;;;;;15.70;55.60;;;;;;10083644;28;96515;-47
2024/01/31 11:51:21;;;;;;;;;;;15.70;55.60;;;;;;10108675;28;93462;-46
2024/01/31 11:56:23;;;;;;;;;;;15.70;55.70;;;;;;10111737;28;94467;-49
2024/01/31 12:01:29;;;;;;;;;;;15.60;55.80;;;;;;10098161;28;94428;-50
2024/01/31 12:06:31;;;;;;;;;;;15.70;55.80;;;;;;10096988;28;93481;-52
2024/01/31 12:11:33;;;;;;;;;;;15.70;55.70;;;;;;10085152;28;94767;-50
2024/01/31 12:16:38;;;;;;;;;;;15.70;55.60;;;;;;10096528;28;93643;-50
2024/01/31 12:21:41;;;;;;;;;;;15.80;55.50;;;;;;10107192;28;93480;-48
2024/01/31 12:26:43;;;;;;;;;;;15.80;55.50;;;;;;10103225;28;93790;-50
2024/01/31 12:31:45;;;;;;;;;;;15.80;55.50;;;;;;10117084;28;92893;-51
2024/01/31 12:36:47;;;;;;;;;;;15.70;55.50;;;;;;10099101;28;95903;-49
2024/01/31 12:41:50;;;;;;;;;;;15.70;55.50;;;;;;10121443;28;92810;-49
2024/01/31 12:46:52;;;;;;;;;;;15.70;55.60;;;;;;10109509;28;93539;-50
2024/01/31 12:51:54;;;;;;;;;;;15.70;55.70;;;;;;10118759;28;93962;-48
2024/01/31 12:56:56;;;;;;;;;;;15.60;55.80;;;;;;10112520;28;94423;-50
2024/01/31 13:01:57;;;;;;;;;;;15.60;55.80;;;;;;10102905;28;94008;-48
2024/01/31 13:06:59;;;;;;;;;;;15.60;55.80;;;;;;10113459;28;93379;-48
2024/01/31 13:12:02;;;;;;;;;;;15.60;55.90;;;;;;10116401;28;92218;-48
2024/01/31 13:17:04;;;;;;;;;;;15.50;55.90;;;;;;10128639;28;93951;-54
2024/01/31 13:22:06;;;;;;;;;;;15.50;55.90;;;;;;10114623;28;94001;-50
2024/01/31 13:27:08;;;;;;;;;;;15.50;56.10;;;;;;10111525;28;97059;-46
2024/01/31 13:32:09;;;;;;;;;;;15.60;56.10;;;;;;10107469;28;94590;-51
2024/01/31 13:37:11;;;;;;;;;;;15.60;55.90;;;;;;10104369;28;93467;-53
2024/01/31 13:42:13;;;;;;;;;;;15.70;55.90;;;;;;10108681;28;94448;-52
2024/01/31 13:47:16;;;;;;;;;;;15.70;55.80;;;;;;10101259;28;93643;-51
2024/01/31 13:52:18;;;;;;;;;;;15.70;55.80;;;;;;10076031;28;94429;-51
2024/01/31 13:57:20;;;;;;;;;;;15.60;55.70;;;;;;10102575;28;94428;-52
2024/01/31 14:02:22;;;;;;;;;;;15.60;55.70;;;;;;10106251;28;92675;-50
2024/01/31 14:07:24;;;;;;;;;;;15.60;55.70;;;;;;10102087;28;94487;-50
2024/01/31 14:12:26;;;;;;;;;;;15.60;55.90;;;;;;10094543;28;93516;-50
2024/01/31 14:17:27;;;;;;;;;;;15.60;55.80;;;;;;10098307;28;97097;-46
2024/01/31 14:22:29;;;;;;;;;;;15.60;55.80;;;;;;10107829;28;94616;-47
2024/01/31 14:27:51;;;;;;;;;;;15.60;55.70;;;;;;10108067;28;94943;-47
2024/01/31 14:32:53;;;;;;;;;;;15.50;55.70;;;;;;10107949;28;94433;-48
2024/01/31 14:37:55;;;;;;;;;;;15.50;55.80;;;;;;10110306;28;95564;-48
2024/01/31 14:42:57;;;;;;;;;;;15.50;55.80;;;;;;10099517;28;95379;-45
2024/01/31 14:47:58;;;;;;;;;;;15.50;55.80;;;;;;10102680;28;94263;-44
2024/01/31 14:53:00;;;;;;;;;;;15.60;55.80;;;;;;10104497;28;92708;-44
2024/01/31 14:58:02;;;;;;;;;;;15.80;55.50;;;;;;10115006;28;94545;-46
2024/01/31 15:03:04;;;;;;;;;;;16.10;55.20;;;;;;10102706;28;93460;-44
2024/01/31 15:08:06;;;;;;;;;;;16.20;54.80;;;;;;10109708;28;96456;-46
2024/01/31 15:13:08;;;;;;;;;;;16.40;54.60;;;;;;10075731;28;94859;-47
2024/01/31 15:18:10;;;;;;;;;;;16.50;56.30;;;;;;10106971;28;94602;-47
2024/01/31 15:23:12;;;;;;;;;;;16.60;55.60;;;;;;10105879;28;93443;-46
2024/01/31 15:28:13;;;;;;;;;;;16.60;54.80;;;;;;10107467;28;94433;-45
2024/01/31 15:33:15;;;;;;;;;;;16.60;54.70;;;;;;10117738;28;93491;-46
2024/01/31 15:38:17;;;;;;;;;;;16.50;54.60;;;;;;10103096;28;94658;-47
2024/01/31 15:43:19;;;;;;;;;;;16.50;54.60;;;;;;10101196;28;93716;-44
2024/01/31 15:48:21;;;;;;;;;;;16.60;54.50;;;;;;10101135;28;93482;-44
2024/01/31 15:53:23;;;;;;;;;;;16.50;54.40;;;;;;10103078;28;93580;-44
2024/01/31 15:58:25;;;;;;;;;;;16.60;54.50;;;;;;10101784;28;95749;-45
2024/01/31 16:03:27;;;;;;;;;;;16.60;54.60;;;;;;10112168;28;93348;-47
2024/01/31 16:08:29;;;;;;;;;;;16.70;54.20;;;;;;10096581;28;93507;-46
2024/01/31 16:13:31;;;;;;;;;;;16.80;54.10;;;;;;10105039;28;93628;-44
2024/01/31 16:18:33;;;;;;;;;;;16.80;54.00;;;;;;10110170;28;93779;-49
2024/01/31 16:23:35;;;;;;;;;;;16.70;54.20;;;;;;10109619;28;93983;-48
2024/01/31 16:28:37;;;;;;;;;;;16.80;54.20;;;;;;10117261;28;94488;-51
2024/01/31 16:33:38;;;;;;;;;;;16.90;54.10;;;;;;10106711;28;94861;-49
2024/01/31 16:38:42;;;;;;;;;;;16.90;53.90;;;;;;10106867;28;94851;-47
2024/01/31 16:43:44;;;;;;;;;;;17.10;53.60;;;;;;10106483;28;94564;-50
2024/01/31 16:48:50;;;;;;;;;;;17.30;53.80;;;;;;10099552;28;95883;-47
2024/01/31 16:53:52;;;;;;;;;;;17.50;53.70;;;;;;10122586;28;94225;-49
2024/01/31 16:58:54;;;;;;;;;;;17.70;53.80;;;;;;10117394;28;93724;-48
2024/01/31 17:03:58;;;;;;;;;;;17.90;53.90;;;;;;10124943;28;94728;-47
2024/01/31 17:09:00;;;;;;;;;;;18.00;53.80;;;;;;10114050;28;94545;-51
2024/01/31 17:14:02;;;;;;;;;;;18.20;53.80;;;;;;10103792;28;94403;-48
2024/01/31 17:19:04;;;;;;;;;;;18.30;53.80;;;;;;10114993;28;93584;-47
2024/01/31 17:24:06;;;;;;;;;;;18.40;54.00;;;;;;10115069;28;93714;-46
2024/01/31 17:29:08;;;;;;;;;;;18.70;55.40;;;;;;10119501;28;94082;-50
2024/01/31 17:34:10;;;;;;;;;;;18.80;56.90;;;;;;10110110;28;93341;-48
2024/01/31 17:39:14;;;;;;;;;;;18.90;56.20;;;;;;10116829;28;96144;-49
2024/01/31 17:44:16;;;;;;;;;;;18.90;57.90;;;;;;10113831;28;92954;-50
2024/01/31 17:49:18;;;;;;;;;;;19.00;58.10;;;;;;10119391;28;95476;-50
2024/01/31 17:54:20;;;;;;;;;;;19.20;56.90;;;;;;10110015;28;94572;-48
2024/01/31 17:59:22;;;;;;;;;;;19.20;56.70;;;;;;10121043;28;94466;-51
2024/01/31 18:04:23;;;;;;;;;;;19.20;56.40;;;;;;10110676;28;93998;-51
2024/01/31 18:09:25;;;;;;;;;;;19.10;56.60;;;;;;10112210;28;94584;-50
2024/01/31 18:14:27;;;;;;;;;;;19.10;56.40;;;;;;10109031;28;93526;-52
2024/01/31 18:19:29;;;;;;;;;;;19.20;56.20;;;;;;10107590;28;94444;-49
2024/01/31 18:24:31;;;;;;;;;;;19.30;56.00;;;;;;10116520;28;94564;-47
2024/01/31 18:29:36;;;;;;;;;;;19.40;55.80;;;;;;10101507;28;96089;-49
2024/01/31 18:34:40;;;;;;;;;;;19.50;55.40;;;;;;10117732;28;94498;-49
2024/01/31 18:39:42;;;;;;;;;;;19.50;55.20;;;;;;10108241;28;93531;-51
2024/01/31 18:44:45;;;;;;;;;;;19.40;55.20;;;;;;10121425;28;94619;-50
2024/01/31 18:49:47;;;;;;;;;;;19.40;55.30;;;;;;10100767;28;93756;-47
2024/01/31 18:54:49;;;;;;;;;;;19.40;55.30;;;;;;10121488;28;94442;-50
2024/01/31 18:59:51;;;;;;;;;;;19.50;55.30;;;;;;10116073;28;93419;-43
2024/01/31 19:04:53;;;;;;;;;;;19.60;54.90;;;;;;10114944;28;94329;-46
2024/01/31 19:10:06;;;;;;;;;;;19.70;54.70;;;;;;10118663;28;95012;-50
2024/01/31 19:15:08;;;;;;;;;;;19.80;54.30;;;;;;10088972;28;94650;-48
2024/01/31 19:20:10;;;;;;;;;;;19.70;55.00;;;;;;10116740;28;95784;-52
2024/01/31 19:25:12;;;;;;;;;;;19.60;55.50;;;;;;10111250;28;93472;-47
2024/01/31 19:30:14;;;;;;;;;;;19.50;55.70;;;;;;10103043;28;94501;-49
2024/01/31 19:35:18;;;;;;;;;;;19.50;55.80;;;;;;10116677;28;93350;-51
2024/01/31 19:40:19;;;;;;;;;;;19.60;56.00;;;;;;10110971;28;94654;-45
2024/01/31 19:45:21;;;;;;;;;;;19.60;56.00;;;;;;10121881;28;93798;-51
2024/01/31 19:50:23;;;;;;;;;;;19.50;55.90;;;;;;10136425;28;94766;-46
2024/01/31 19:55:25;;;;;;;;;;;19.40;56.00;;;;;;10117287;28;93923;-47
2024/01/31 20:00:27;;;;;;;;;;;19.40;56.00;;;;;;10101091;28;94463;-49
2024/01/31 20:05:29;;;;;;;;;;;19.40;55.90;;;;;;10119000;28;93490;-50
2024/01/31 20:10:32;;;;;;;;;;;19.50;56.20;;;;;;10105673;28;97245;-48
2024/01/31 20:15:33;;;;;;;;;;;19.70;55.90;;;;;;10117317;28;93300;-50
2024/01/31 20:20:37;;;;;;;;;;;19.70;55.50;;;;;;10086907;28;97164;-48
2024/01/31 20:25:39;;;;;;;;;;;19.70;55.40;;;;;;10108537;28;94559;-50
2024/01/31 20:30:41;;;;;;;;;;;19.60;55.40;;;;;;10115974;28;93562;-47
2024/01/31 20:35:43;;;;;;;;;;;19.70;55.50;;;;;;10110335;28;94273;-48
2024/01/31 20:40:45;;;;;;;;;;;19.70;55.40;;;;;;10115687;28;94872;-47
2024/01/31 20:45:47;;;;;;;;;;;19.60;55.20;;;;;;10111898;28;92667;-47
2024/01/31 20:50:49;;;;;;;;;;;19.60;55.30;;;;;;10111180;28;94541;-46
2024/01/31 20:55:50;;;;;;;;;;;19.40;55.30;;;;;;10111867;28;93519;-46
2024/01/31 21:00:52;;;;;;;;;;;19.30;55.40;;;;;;10112348;28;96848;-49
2024/01/31 21:05:54;;;;;;;;;;;19.10;55.60;;;;;;10108075;28;93986;-51
2024/01/31 21:10:59;;;;;;;;;;;19.00;55.90;;;;;;10120932;28;94188;-46
2024/01/31 21:16:02;;;;;;;;;;;18.80;56.10;;;;;;10110899;28;93509;-46
2024/01/31 21:21:04;;;;;;;;;;;18.70;56.40;;;;;;10106588;28;94732;-46
2024/01/31 21:26:06;;;;;;;;;;;18.50;56.60;;;;;;10124812;28;94539;-47
2024/01/31 21:31:09;;;;;;;;;;;18.40;56.80;;;;;;10122623;28;114025;-49
2024/01/31 21:36:11;;;;;;;;;;;18.30;57.10;;;;;;10111786;28;92331;-48
2024/01/31 21:41:13;;;;;;;;;;;18.20;57.30;;;;;;10122968;28;94436;-46
2024/01/31 21:46:15;;;;;;;;;;;18.10;57.60;;;;;;10110347;28;93414;-48
2024/01/31 21:51:17;;;;;;;;;;;18.00;57.80;;;;;;10116403;28;96832;-50
2024/01/31 21:56:19;;;;;;;;;;;18.00;57.90;;;;;;10118061;28;93696;-51
2024/01/31 22:01:21;;;;;;;;;;;17.90;57.90;;;;;;10113725;28;93472;-49
2024/01/31 22:06:23;;;;;;;;;;;17.80;57.90;;;;;;10104573;28;94453;-47
2024/01/31 22:11:25;;;;;;;;;;;17.70;58.00;;;;;;10106633;28;94813;-51
2024/01/31 22:16:27;;;;;;;;;;;17.70;58.00;;;;;;10115675;28;93527;-51
2024/01/31 22:21:28;;;;;;;;;;;17.60;57.90;;;;;;10109288;28;93453;-52
2024/01/31 22:26:34;;;;;;;;;;;17.60;58.00;;;;;;10115993;28;93612;-52
2024/01/31 22:31:43;;;;;;;;;;;17.50;57.90;;;;;;10120330;28;96185;-53
2024/01/31 22:36:45;;;;;;;;;;;17.50;57.90;;;;;;10112412;28;93862;-52
2024/01/31 22:41:47;;;;;;;;;;;17.50;57.90;;;;;;10106941;28;97454;-49
2024/01/31 22:46:49;;;;;;;;;;;17.40;57.90;;;;;;10107970;28;93466;-46
2024/01/31 22:51:51;;;;;;;;;;;17.30;57.90;;;;;;10104199;28;93598;-48
2024/01/31 22:56:54;;;;;;;;;;;17.20;57.90;;;;;;10117549;28;93445;-50
2024/01/31 23:01:56;;;;;;;;;;;17.20;57.90;;;;;;10121991;28;93923;-48
2024/01/31 23:06:58;;;;;;;;;;;17.10;58.00;;;;;;10113144;28;93500;-46
2024/01/31 23:12:00;;;;;;;;;;;17.10;57.90;;;;;;10118518;28;93520;-49
2024/01/31 23:17:03;;;;;;;;;;;17.10;57.60;;;;;;10128504;28;92734;-50
2024/01/31 23:22:05;;;;;;;;;;;17.00;57.20;;;;;;10095051;28;93517;-48
2024/01/31 23:27:07;;;;;;;;;;;17.00;56.90;;;;;;10114058;28;94049;-48
2024/01/31 23:32:09;;;;;;;;;;;17.00;56.60;;;;;;10112181;28;97001;-50
2024/01/31 23:37:11;;;;;;;;;;;17.00;56.30;;;;;;10109530;28;93469;-48
2024/01/31 23:42:13;;;;;;;;;;;16.90;56.10;;;;;;10106057;28;93562;-48
2024/01/31 23:47:15;;;;;;;;;;;16.90;55.90;;;;;;10119337;28;93637;-49
2024/01/31 23:52:16;;;;;;;;;;;16.90;55.70;;;;;;10114027;28;94490;-48
2024/01/31 23:57:18;;;;;;;;;;;16.80;56.00;;;;;;10111396;28;93526;-47
